Data for 08/14/2013

Time Sea-Level Adjusted Pressure Absolute Pressure Temperature Relative Humidity Dew Point   
(mb) (inHg) (mb) (inHg) (C) (F) (%) (C) (F)
00:05 1024 30.24 853 25.19 15.6 60.1 55 6.6 43.8
00:10 1024 30.24 853 25.19 15.1 59.2 56 6.6 43.9
00:15 1024 30.24 853 25.19 14.5 58.1 58 6.4 43.5
00:20 1024 30.24 853 25.19 13.3 55.9 61 5.9 42.6
00:25 1024 30.24 853 25.19 12.5 54.5 62 5.4 41.8
00:30 1024 30.24 853 25.19 12.5 54.5 61 5.3 41.5
00:35 1024 30.24 853 25.19 12.9 55.1 59 5 41
00:40 1024 30.24 853 25.19 13.2 55.7 58 5.2 41.4
00:45 1024 30.24 853 25.19 13.1 55.6 59 5.4 41.7
00:50 1024 30.24 853 25.19 13.1 55.5 58 5.1 41.1
00:55 1024 30.24 853 25.19 13.4 56.1 57 5 41.1
01:00 1024 30.24 853 25.19 14.1 57.3 54 5.1 41.1
01:05 1024 30.24 853 25.19 14.3 57.7 55 5.3 41.6
01:10 1023 30.21 853 25.19 14 57.3 55 5.3 41.5
01:15 1023 30.21 853 25.19 13.6 56.4 59 5.7 42.3
01:20 1023 30.21 853 25.19 13.1 55.7 61 5.7 42.3
01:25 1023 30.21 853 25.19 13 55.3 59 5.1 41.2
01:30 1023 30.21 853 25.19 12.8 55 60 5.3 41.6
01:35 1023 30.21 853 25.19 12.5 54.5 62 5.5 42
01:40 1023 30.21 853 25.19 12.5 54.4 63 5.6 42.1
01:45 1023 30.21 853 25.19 12.4 54.4 63 5.7 42.2
01:50 1023 30.21 853 25.19 12.5 54.4 63 5.6 42.1
01:55 1023 30.21 853 25.19 12.6 54.6 62 5.6 42
02:00 1023 30.21 853 25.19 12.5 54.5 62 5.6 42
02:05 1023 30.21 853 25.19 12.3 54.1 62 5.2 41.4
02:10 1023 30.21 853 25.19 12.2 54 62 5.2 41.3
02:15 1023 30.21 852 25.16 12 53.6 63 5.3 41.5
02:20 1023 30.21 852 25.16 11.9 53.4 64 5.4 41.7
02:25 1023 30.21 852 25.16 11.7 53.1 64 5.3 41.5
02:30 1023 30.21 852 25.16 11.4 52.4 65 5 41
02:35 1023 30.21 852 25.16 11.2 52.2 64 4.7 40.5
02:40 1023 30.21 852 25.16 11.3 52.3 63 4.5 40.1
02:45 1023 30.21 852 25.16 11.4 52.4 63 4.6 40.2
02:50 1023 30.21 852 25.16 11.4 52.4 62 4.4 40
02:55 1023 30.21 852 25.16 11.4 52.6 62 4.4 39.9
03:00 1023 30.21 852 25.16 11.9 53.5 58 4 39.2
03:05 1023 30.21 852 25.16 12.2 54 60 4.8 40.6
03:10 1023 30.21 852 25.16 11.7 53 62 4.6 40.2
03:15 1023 30.21 852 25.16 11.5 52.6 62 4.4 39.9
03:20 1023 30.21 852 25.16 11.3 52.4 63 4.5 40.2
03:25 1023 30.21 852 25.16 11 51.8 64 4.6 40.3
03:30 1023 30.21 852 25.16 10.9 51.6 64 4.3 39.7
03:35 1023 30.21 852 25.16 11.4 52.5 63 4.7 40.4
03:40 1023 30.21 852 25.16 11.3 52.3 65 4.9 40.8
03:45 1023 30.21 852 25.16 11.2 52.1 64 4.8 40.6
03:50 1023 30.21 852 25.16 11.1 51.9 64 4.6 40.3
03:55 1023 30.21 852 25.16 10.9 51.6 66 4.7 40.5
04:00 1023 30.21 852 25.16 10.8 51.4 65 4.5 40
04:05 1023 30.21 852 25.16 10.8 51.4 64 4.4 39.9
04:10 1023 30.21 852 25.16 10.9 51.6 64 4.4 39.9
04:15 1023 30.21 852 25.16 10.7 51.2 65 4.5 40.1
04:20 1023 30.21 852 25.16 10.4 50.7 66 4.3 39.7
04:25 1023 30.21 852 25.16 10.5 50.9 65 4.1 39.4
04:30 1023 30.21 852 25.16 10.7 51.2 65 4.5 40.1
04:35 1023 30.21 852 25.16 10.4 50.7 66 4.3 39.7
04:40 1023 30.21 852 25.16 10.9 51.6 61 3.7 38.7
04:45 1023 30.21 852 25.16 11.7 53.1 59 4.1 39.4
04:50 1023 30.21 852 25.16 11.7 53.1 59 4.1 39.4
04:55 1023 30.21 852 25.16 11.5 52.7 60 4.1 39.4
05:00 1023 30.21 852 25.16 11.3 52.4 61 4.2 39.5
05:05 1023 30.21 852 25.16 11.2 52.1 63 4.3 39.8
05:10 1023 30.21 852 25.16 11.1 51.9 63 4.3 39.8
05:15 1023 30.21 852 25.16 11 51.8 63 4.3 39.7
05:20 1023 30.21 852 25.16 11 51.8 63 4.4 39.9
05:25 1023 30.21 852 25.16 10.6 51 65 4.4 39.9
05:30 1023 30.21 852 25.16 10.5 50.9 64 4 39.1
05:35 1023 30.21 852 25.16 10.7 51.3 63 4 39.3
05:40 1023 30.21 852 25.16 10.8 51.5 62 3.9 39.1
05:45 1023 30.21 852 25.16 11.1 52 61 4 39.2
05:50 1023 30.21 852 25.16 11.3 52.3 60 3.9 39.1
05:55 1023 30.21 852 25.16 11.6 52.9 60 4 39.3
06:00 1023 30.21 852 25.16 11.8 53.2 59 4.1 39.3
06:05 1023 30.21 852 25.16 12 53.7 58 4.1 39.4
06:10 1023 30.21 852 25.16 12.2 53.9 57 4 39.2
06:15 1023 30.21 852 25.16 12.2 53.9 58 4.2 39.5
06:20 1023 30.21 852 25.16 12 53.5 59 4.2 39.5
06:25 1023 30.21 852 25.16 11.8 53.3 60 4.5 40
06:30 1023 30.21 852 25.16 11.9 53.3 59 4.2 39.6
06:35 1023 30.21 852 25.16 12.1 53.9 58 4.2 39.6
06:40 1023 30.21 852 25.16 12.7 54.8 55 4 39.1
06:45 1023 30.21 852 25.16 13.3 55.9 55 4.6 40.4
06:50 1023 30.21 852 25.16 13.6 56.5 57 5.4 41.7
06:55 1023 30.21 852 25.16 13.3 56 57 5.1 41.2
07:00 1023 30.21 852 25.16 13.1 55.6 57 5 40.9
07:05 1023 30.21 852 25.16 13.3 55.9 57 4.9 40.8
07:10 1023 30.21 852 25.16 13.7 56.6 56 5.1 41.2
07:15 1023 30.21 853 25.19 14.1 57.4 53 4.7 40.5
07:20 1023 30.21 852 25.16 14.8 58.7 51 5 40.9
07:25 1023 30.21 853 25.19 15.6 60 48 4.8 40.6
07:30 1023 30.21 853 25.19 16.3 61.3 45 4.6 40.3
07:35 1023 30.21 852 25.16 16.7 62 46 5.2 41.4
07:40 1023 30.21 852 25.16 17 62.6 44 4.9 40.8
07:45 1023 30.21 853 25.19 17.3 63.1 43 4.7 40.4
07:50 1023 30.21 853 25.19 17.1 62.7 43 4.7 40.4
07:55 1023 30.21 853 25.19 17.5 63.4 42 4.7 40.4
08:00 1023 30.21 853 25.19 17.5 63.5 42 4.6 40.2
08:05 1023 30.21 853 25.19 17.8 64 42 5 41
08:10 1023 30.21 853 25.19 18.3 64.9 42 5.3 41.6
08:15 1023 30.21 853 25.19 18.4 65 42 5.5 41.9
08:20 1023 30.21 853 25.19 18.5 65.3 42 5.4 41.8
08:25 1023 30.21 853 25.19 18.9 66.1 42 5.8 42.4
08:30 1023 30.21 853 25.19 19.3 66.7 40 5.3 41.6
08:35 1023 30.21 853 25.19 19.2 66.6 40 5.5 41.9
08:40 1023 30.21 853 25.19 19.2 66.5 42 6.1 42.9
08:45 1023 30.21 853 25.19 18.9 66.1 41 5.4 41.7
08:50 1023 30.21 852 25.16 19.5 67.1 41 5.9 42.5
08:55 1023 30.21 852 25.16 19.5 67.1 42 6.4 43.6
09:00 1023 30.21 852 25.16 18.6 65.6 44 6.2 43.1
09:05 1023 30.21 852 25.16 18.7 65.7 42 5.7 42.3
09:10 1023 30.21 852 25.16 19.8 67.7 41 6.3 43.3
09:15 1023 30.21 852 25.16 19.9 67.7 39 5.6 42.1
09:20 1023 30.21 852 25.16 20.4 68.7 38 6 42.7
09:25 1023 30.21 852 25.16 21 69.7 37 5.8 42.5
09:30 1023 30.21 852 25.16 20.9 69.5 37 5.7 42.3
09:35 1023 30.21 852 25.16 20.6 69.1 38 6 42.8
09:40 1023 30.21 852 25.16 20.5 68.9 37 5.6 42.1
09:45 1023 30.21 852 25.16 20.8 69.4 36 5.4 41.7
09:50 1023 30.21 852 25.16 21.7 71 35 5.8 42.4
09:55 1023 30.21 852 25.16 22 71.5 34 5.8 42.4
10:00 1023 30.21 852 25.16 22.2 72 33 5.3 41.6
10:05 1023 30.21 852 25.16 22.1 71.8 34 5.9 42.6
10:10 1023 30.21 852 25.16 21.9 71.5 34 5.6 42.1
10:15 1023 30.21 852 25.16 22.4 72.3 33 5.5 41.8
10:20 1023 30.21 852 25.16 22.5 72.5 33 5.7 42.2
10:25 1023 30.21 852 25.16 22.6 72.6 32 5.4 41.7
10:30 1023 30.21 852 25.16 22.9 73.3 32 5.5 41.9
10:35 1023 30.21 852 25.16 23.5 74.2 30 5.2 41.4
10:40 1023 30.21 852 25.16 23.7 74.7 30 5.5 41.9
10:45 1023 30.21 852 25.16 24 75.3 30 5.6 42.1
10:50 1023 30.21 852 25.16 24.3 75.8 30 5.6 42.2
10:55 1023 30.21 852 25.16 24.7 76.4 29 5.9 42.6
11:00 1023 30.21 852 25.16 24.2 75.6 30 5.6 42
11:05 1023 30.21 852 25.16 24.4 75.9 29 5.3 41.6
11:10 1023 30.21 852 25.16 24.4 75.9 29 5.4 41.7
11:15 1022 30.18 852 25.16 24.9 76.8 28 5.2 41.4
11:20 1022 30.18 852 25.16 24.4 75.8 29 5.2 41.4
11:25 1022 30.18 852 25.16 25.1 77.1 28 5.4 41.6
11:30 1022 30.18 852 25.16 26 78.8 26 5 41
11:35 1022 30.18 852 25.16 26.7 80.1 25 5.3 41.5
11:40 1022 30.18 852 25.16 26.5 79.7 24 4.6 40.2
11:45 1022 30.18 851 25.13 26 78.8 23 3.4 38.1
11:50 1022 30.18 851 25.13 26.3 79.4 24 4.3 39.7
11:55 1022 30.18 851 25.13 26.2 79.2 24 4.6 40.3
12:00 1022 30.18 851 25.13 26.4 79.5 23 4.1 39.4
12:05 1022 30.18 851 25.13 26.7 80 23 4.3 39.7
12:10 1022 30.18 851 25.13 26.3 79.4 22 3 37.5
12:15 1022 30.18 851 25.13 27 80.7 21 3.4 38.2
12:20 1022 30.18 851 25.13 27.3 81.1 22 3.8 38.8
12:25 1022 30.18 851 25.13 26.9 80.3 23 4 39.2
12:30 1022 30.18 851 25.13 26.7 80.1 23 4 39.1
12:35 1022 30.18 851 25.13 26.9 80.4 22 3.5 38.3
12:40 1022 30.18 851 25.13 27.3 81.2 20 2.7 36.9
12:45 1022 30.18 851 25.13 27.7 81.8 19 2.1 35.8
12:50 1022 30.18 851 25.13 28 82.3 18 1.5 34.8
12:55 1022 30.18 851 25.13 27.2 81 18 1.3 34.3
13:00 1022 30.18 851 25.13 26.6 80 19 1.4 34.5
13:05 1022 30.18 851 25.13 26.5 79.7 17 -0.4 31.3
13:10 1022 30.18 851 25.13 26.7 80.1 17 -0.5 31.2
13:15 1022 30.18 851 25.13 27.4 81.3 17 0.3 32.6
13:20 1022 30.18 851 25.13 27.9 82.2 16 -0.2 31.7
13:25 1022 30.18 851 25.13 28.2 82.7 16 -0.1 31.8
13:30 1022 30.18 851 25.13 28.5 83.4 15 -0.2 31.6
13:35 1022 30.18 851 25.13 28.5 83.3 14 -0.8 30.5
13:40 1021 30.15 851 25.13 28.1 82.6 15 -1 30.3
13:45 1021 30.15 851 25.13 28.3 83 15 -0.4 31.2
13:50 1021 30.15 851 25.13 28.2 82.8 15 -1 30.2
13:55 1021 30.15 851 25.13 28.4 83.1 15 -0.7 30.7
14:00 1021 30.15 851 25.13 28.5 83.2 15 -0.4 31.2
14:05 1021 30.15 851 25.13 28.1 82.6 15 -0.9 30.4
14:10 1021 30.15 850 25.1 28.6 83.5 14 -1 30.3
14:15 1021 30.15 850 25.1 28.8 83.8 15 -0 32
14:20 1021 30.15 850 25.1 28.9 84.1 14 -0.9 30.4
14:25 1021 30.15 850 25.1 28.4 83.2 15 -0.8 30.6
14:30 1021 30.15 850 25.1 27.8 82.1 16 -0.3 31.4
14:35 1021 30.15 850 25.1 28.4 83.1 14 -0.9 30.4
14:40 1021 30.15 850 25.1 28.6 83.5 14 -0.8 30.5
14:45 1021 30.15 850 25.1 28.1 82.6 15 -1.1 30.1
14:50 1021 30.15 850 25.1 28.3 82.9 15 -0.8 30.5
14:55 1021 30.15 850 25.1 29.1 84.4 14 -0.6 31
15:00 1021 30.15 850 25.1 28.1 82.5 15 -0.9 30.4
15:05 1021 30.15 850 25.1 28.4 83 15 -0.4 31.4
15:10 1021 30.15 850 25.1 28.6 83.4 14 -0.8 30.5
15:15 1021 30.15 850 25.1 28.5 83.3 14 -0.8 30.6
15:20 1021 30.15 850 25.1 28.5 83.4 15 -0.4 31.3
15:25 1021 30.15 850 25.1 27.7 81.8 15 -1 30.2
15:30 1020 30.12 850 25.1 28.2 82.8 15 -0.4 31.2
15:35 1020 30.12 850 25.1 28.8 83.9 15 0.1 32.1
15:40 1020 30.12 850 25.1 28.9 84 15 -0.5 31.2
15:45 1020 30.12 850 25.1 28 82.3 15 -0.5 31.2
15:50 1020 30.12 850 25.1 28.3 82.9 15 -0.4 31.2
15:55 1020 30.12 850 25.1 28.6 83.5 15 -0.5 31.1
16:00 1020 30.12 849 25.07 28.8 83.8 15 -0.1 31.8
16:05 1020 30.12 849 25.07 29 84.1 15 -0.1 31.9
16:10 1020 30.12 849 25.07 28.9 84.1 15 -0.3 31.4
16:15 1020 30.12 849 25.07 28.5 83.4 16 0.2 32.3
16:20 1020 30.12 849 25.07 28.4 83.1 15 -0.3 31.5
16:25 1020 30.12 849 25.07 28 82.4 15 -0.6 30.9
16:30 1020 30.12 849 25.07 28.6 83.6 15 -0.1 31.8
16:35 1020 30.12 849 25.07 28.1 82.6 16 0.5 32.9
16:40 1020 30.12 849 25.07 28.1 82.7 15 -0.6 30.9
16:45 1020 30.12 849 25.07 28 82.4 17 0.9 33.6
16:50 1020 30.12 849 25.07 28 82.5 16 0.5 32.8
16:55 1020 30.12 849 25.07 28.6 83.6 15 -0.3 31.4
17:00 1020 30.12 849 25.07 28.5 83.2 16 0.3 32.5
17:05 1020 30.12 849 25.07 28.1 82.6 15 -0.3 31.4
17:10 1020 30.12 849 25.07 28.7 83.6 15 -0.6 30.8
17:15 1020 30.12 849 25.07 28.6 83.5 15 0 32
17:20 1020 30.12 849 25.07 28.8 83.8 15 0.1 32.2
17:25 1020 30.12 849 25.07 28.1 82.7 15 -0.4 31.4
17:30 1020 30.12 849 25.07 27.9 82.2 15 -0.7 30.8
17:35 1020 30.12 849 25.07 28.5 83.3 16 0.9 33.6
17:40 1020 30.12 849 25.07 27.9 82.2 17 0.5 33
17:45 1020 30.12 849 25.07 27.6 81.7 17 0.6 33.1
17:50 1020 30.12 849 25.07 27.4 81.3 17 0.4 32.7
17:55 1020 30.12 849 25.07 27.1 80.9 18 1.1 33.9
18:00 1020 30.12 849 25.07 27.2 81 18 1.5 34.6
18:05 1020 30.12 849 25.07 27.1 80.7 18 1 33.8
18:10 1020 30.12 849 25.07 27 80.7 18 0.9 33.6
18:15 1020 30.12 849 25.07 27.1 80.7 18 0.7 33.3
18:20 1020 30.12 849 25.07 27 80.6 18 1.2 34.2
18:25 1020 30.12 849 25.07 26.8 80.3 19 1.7 35.1
18:30 1020 30.12 849 25.07 26.7 80 19 1.6 34.8
18:35 1020 30.12 849 25.07 26.5 79.8 19 1.5 34.6
18:40 1020 30.12 849 25.07 26.4 79.6 19 1.4 34.6
18:45 1020 30.12 849 25.07 26.3 79.3 19 1.1 34
18:50 1020 30.12 849 25.07 26.2 79.1 19 0.8 33.4
18:55 1020 30.12 849 25.07 26.1 79 19 1.1 33.9
19:00 1020 30.12 849 25.07 26.1 79 19 0.7 33.3
19:05 1020 30.12 849 25.07 26.2 79.1 18 0.3 32.6
19:10 1020 30.12 849 25.07 26.2 79.2 18 0.5 32.8
19:15 1020 30.12 849 25.07 26.1 78.9 28 6.2 43.1
19:20 1020 30.12 849 25.07 25.5 77.8 26 4.8 40.6
19:25 1020 30.12 849 25.07 24.5 76.1 27 4.4 39.9
19:30 1020 30.12 849 25.07 24.1 75.4 29 5.3 41.5
19:35 1020 30.12 849 25.07 23.7 74.7 32 6.1 42.9
19:40 1020 30.12 849 25.07 22.9 73.1 32 5.7 42.3
19:45 1020 30.12 849 25.07 22.1 71.8 35 6.2 43.1
19:50 1020 30.12 849 25.07 21.4 70.5 34 5.1 41.1
19:55 1020 30.12 849 25.07 21.2 70.1 33 4.5 40.2
20:00 1020 30.12 849 25.07 21.1 70 33 4.2 39.6
20:05 1020 30.12 850 25.1 21 69.8 33 4.1 39.4
20:10 1020 30.12 850 25.1 20.4 68.7 36 4.8 40.6
20:15 1020 30.12 850 25.1 20 67.9 37 5 41
20:20 1020 30.12 850 25.1 20.3 68.5 38 5.5 41.8
20:25 1020 30.12 850 25.1 20.2 68.4 33 3.4 38.2
20:30 1020 30.12 850 25.1 20.3 68.6 28 1.2 34.1
20:35 1020 30.12 850 25.1 21.1 70 27 1.6 34.9
20:40 1020 30.12 850 25.1 21.1 69.9 30 2.9 37.2
20:45 1021 30.15 850 25.1 20.8 69.4 31 3 37.4
20:50 1021 30.15 850 25.1 20.4 68.8 31 2.9 37.3
20:55 1021 30.15 850 25.1 20 68.1 31 2.7 36.8
21:00 1021 30.15 850 25.1 19.8 67.7 33 3.1 37.5
21:05 1021 30.15 850 25.1 19.5 67.2 32 2.6 36.7
21:10 1021 30.15 850 25.1 19.4 67 34 3.1 37.6
21:15 1021 30.15 850 25.1 19.5 67.2 31 2.2 35.9
21:20 1021 30.15 850 25.1 20 68.1 32 2.8 37.1
21:25 1021 30.15 850 25.1 20.3 68.6 30 2.1 35.9
21:30 1021 30.15 850 25.1 20 68 33 3.6 38.5
21:35 1021 30.15 850 25.1 19.4 66.8 32 2.2 36
21:40 1021 30.15 850 25.1 19.3 66.7 31 2 35.5
21:45 1021 30.15 850 25.1 19.2 66.6 32 2.4 36.3
21:50 1021 30.15 850 25.1 19.2 66.6 31 1.9 35.4
21:55 1021 30.15 850 25.1 19.2 66.5 31 1.9 35.5
22:00 1021 30.15 850 25.1 19 66.2 32 2.2 36
22:05 1021 30.15 850 25.1 18.8 65.8 33 2.4 36.4
22:10 1021 30.15 850 25.1 18.6 65.5 33 2.2 35.9
22:15 1021 30.15 850 25.1 19 66.2 30 1.1 34
22:20 1021 30.15 850 25.1 19.5 67.2 29 1.2 34.2
22:25 1021 30.15 850 25.1 19.8 67.7 28 1.1 34
22:30 1021 30.15 850 25.1 20.1 68.2 28 1 33.8
22:35 1021 30.15 850 25.1 19.9 67.9 29 1.7 35
22:40 1021 30.15 850 25.1 19.7 67.4 28 1 33.8
22:45 1021 30.15 850 25.1 19.9 67.9 27 0.4 32.7
22:50 1021 30.15 850 25.1 21 69.8 25 0.2 32.3
22:55 1021 30.15 850 25.1 21 69.8 26 0.8 33.4
23:00 1021 30.15 850 25.1 20.8 69.5 26 0.8 33.4
23:05 1021 30.15 850 25.1 20.8 69.4 27 1.1 33.9
23:10 1021 30.15 850 25.1 20.5 68.9 28 1.3 34.4
23:15 1021 30.15 850 25.1 20.4 68.8 28 1.4 34.5
23:20 1021 30.15 850 25.1 20.4 68.6 28 1.5 34.6
23:25 1021 30.15 850 25.1 20.5 69 28 1.5 34.7
23:30 1021 30.15 850 25.1 20.7 69.2 28 1.6 34.8
23:35 1021 30.15 850 25.1 20.6 69 29 1.9 35.3
23:40 1021 30.15 850 25.1 20.3 68.5 29 1.8 35.3
23:45 1021 30.15 850 25.1 20.2 68.3 29 1.8 35.3
23:50 1021 30.15 850 25.1 20 68 30 2 35.7
23:55 1021 30.15 850 25.1 19.7 67.4 31 2.2 35.9
24:00 1021 30.15 850 25.1 19.4 67 31 2.1 35.9